Time;durP1;ratioP1;P1;durP2;ratioP2;P2;SDS_P1;SDS_P2;PMS_P1;PMS_P2;Temp;Humidity;BMP_temperature;BMP_pressure;BME280_temperature;BME280_humidity;BME280_pressure;Samples;Min_cycle;Max_cycle;Signal;HPM_P1;HPM_P2
2023/05/12 00:00:07;;;;;;;68.83;40.70;;;15.20;99.90;;;;;;7290678;19;20193;-92
2023/05/12 00:02:41;;;;;;;69.73;39.30;;;15.30;99.90;;;;;;7293195;19;20196;-91
2023/05/12 00:05:07;;;;;;;70.83;42.93;;;15.30;99.90;;;;;;7292549;19;20195;-92
2023/05/12 00:07:33;;;;;;;68.17;40.67;;;15.40;99.90;;;;;;7291262;19;20324;-92
2023/05/12 00:09:59;;;;;;;60.43;37.13;;;15.40;99.90;;;;;;7293590;19;20200;-92
2023/05/12 00:12:25;;;;;;;66.60;39.07;;;15.40;99.90;;;;;;7291787;19;20220;-92
2023/05/12 00:14:51;;;;;;;70.03;40.63;;;15.40;99.90;;;;;;7290057;19;20483;-92
2023/05/12 00:17:17;;;;;;;63.97;40.50;;;15.40;99.90;;;;;;7290295;19;20192;-92
2023/05/12 00:19:43;;;;;;;73.00;40.97;;;15.40;99.90;;;;;;7312894;19;20805;-92
2023/05/12 00:22:10;;;;;;;65.70;38.17;;;15.40;99.90;;;;;;7292632;19;20222;-93
2023/05/12 00:24:36;;;;;;;63.70;38.53;;;15.40;99.90;;;;;;7290722;19;20197;-92
2023/05/12 00:27:02;;;;;;;64.43;40.43;;;15.30;99.90;;;;;;7288405;19;20202;-93
2023/05/12 00:29:28;;;;;;;69.43;40.43;;;15.30;99.90;;;;;;7291438;19;20227;-92
2023/05/12 00:31:55;;;;;;;66.80;40.47;;;15.30;99.90;;;;;;7292128;19;20192;-92
2023/05/12 00:34:20;;;;;;;69.17;42.00;;;15.40;99.90;;;;;;7291098;19;20295;-92
2023/05/12 00:36:46;;;;;;;65.30;38.30;;;15.50;99.90;;;;;;7293063;19;20208;-93
2023/05/12 00:39:12;;;;;;;61.03;38.90;;;15.40;99.90;;;;;;7314027;19;20188;-91
2023/05/12 00:41:38;;;;;;;59.90;37.90;;;15.40;99.90;;;;;;7293721;19;20199;-92
2023/05/12 00:44:04;;;;;;;66.73;38.53;;;15.40;99.90;;;;;;7310684;19;20231;-93
2023/05/12 00:46:30;;;;;;;66.47;40.13;;;15.40;99.90;;;;;;7321032;19;20199;-92
2023/05/12 00:48:57;;;;;;;68.70;41.27;;;15.40;99.90;;;;;;7322190;19;20216;-92
2023/05/12 00:51:24;;;;;;;62.83;38.63;;;15.40;99.90;;;;;;7320522;19;20203;-92
2023/05/12 00:53:51;;;;;;;68.13;39.10;;;15.40;99.90;;;;;;7316647;19;20195;-93
2023/05/12 00:56:18;;;;;;;66.33;39.63;;;15.40;99.90;;;;;;7292878;19;20709;-92
2023/05/12 00:58:45;;;;;;;63.10;37.67;;;15.50;99.90;;;;;;7301866;19;20740;-92
2023/05/12 01:01:12;;;;;;;68.90;40.13;;;15.40;99.90;;;;;;7311987;19;20582;-93
2023/05/12 01:03:39;;;;;;;63.67;39.33;;;15.40;99.90;;;;;;7292131;19;20181;-91
2023/05/12 01:06:11;;;;;;;70.63;39.90;;;15.30;99.90;;;;;;7291027;19;20192;-91
2023/05/12 01:08:41;;;;;;;65.67;38.30;;;15.10;99.90;;;;;;7289015;19;20211;-92
2023/05/12 01:11:07;;;;;;;63.77;39.83;;;15.00;99.90;;;;;;7290136;19;20213;-92
2023/05/12 01:13:34;;;;;;;65.77;38.93;;;14.90;99.90;;;;;;7289932;19;20196;-91
2023/05/12 01:16:01;;;;;;;69.17;40.17;;;14.70;99.90;;;;;;7290665;19;20184;-92
2023/05/12 01:18:31;;;;;;;69.23;41.00;;;14.70;99.90;;;;;;7290106;19;20552;-92
2023/05/12 01:20:59;;;;;;;75.87;43.33;;;14.80;99.90;;;;;;7289396;19;20188;-91
2023/05/12 01:23:31;;;;;;;71.90;42.73;;;15.00;99.90;;;;;;7288737;19;20188;-92
2023/05/12 01:26:06;;;;;;;77.07;42.83;;;15.00;99.90;;;;;;7290139;19;20183;-92
2023/05/12 01:28:34;;;;;;;80.83;43.83;;;15.10;99.90;;;;;;7288162;19;20542;-91
2023/05/12 01:31:02;;;;;;;83.97;45.73;;;15.20;99.90;;;;;;7289552;19;20185;-92
2023/05/12 01:33:29;;;;;;;85.73;44.40;;;15.30;99.90;;;;;;7289202;19;20216;-94
2023/05/12 01:35:55;;;;;;;87.13;44.33;;;15.30;99.90;;;;;;7287382;19;20201;-93
2023/05/12 01:38:21;;;;;;;83.50;44.00;;;15.30;99.90;;;;;;7288725;19;20238;-92
2023/05/12 01:40:48;;;;;;;89.17;47.57;;;15.30;99.90;;;;;;7287291;19;20190;-92
2023/05/12 01:43:16;;;;;;;94.03;47.87;;;15.30;99.90;;;;;;7288115;19;20188;-93
2023/05/12 01:45:42;;;;;;;87.67;46.40;;;15.40;99.90;;;;;;7312661;19;20187;-92
2023/05/12 01:48:09;;;;;;;90.70;46.87;;;15.40;99.90;;;;;;7289044;19;20208;-93
2023/05/12 01:50:35;;;;;;;93.03;46.73;;;15.40;99.90;;;;;;7289996;19;20306;-92
2023/05/12 01:53:04;;;;;;;105.13;51.47;;;15.40;99.90;;;;;;7290378;19;20286;-93
2023/05/12 01:55:33;;;;;;;98.90;48.07;;;15.50;99.90;;;;;;7289082;19;20202;-92
2023/05/12 01:58:02;;;;;;;103.10;48.40;;;15.50;99.90;;;;;;7289667;19;20188;-92
2023/05/12 02:00:28;;;;;;;88.50;44.87;;;15.40;99.90;;;;;;7288556;19;20194;-94
2023/05/12 02:02:56;;;;;;;93.63;46.30;;;15.30;99.90;;;;;;7294989;19;20686;-93
2023/05/12 02:05:22;;;;;;;93.63;46.57;;;15.30;99.90;;;;;;7293041;19;20196;-92
2023/05/12 02:07:50;;;;;;;91.97;45.87;;;15.30;99.90;;;;;;7289395;19;20230;-92
2023/05/12 02:10:16;;;;;;;91.00;45.03;;;15.20;99.90;;;;;;7289555;19;20188;-92
2023/05/12 02:12:43;;;;;;;93.27;44.30;;;15.20;99.90;;;;;;7311187;19;20194;-92
2023/05/12 02:15:09;;;;;;;95.77;47.03;;;15.20;99.90;;;;;;7290287;19;20187;-93
2023/05/12 02:17:38;;;;;;;94.77;45.33;;;15.30;99.90;;;;;;7288224;19;20200;-92
2023/05/12 02:20:05;;;;;;;90.20;43.97;;;15.30;99.90;;;;;;7290118;19;20184;-92
2023/05/12 02:22:31;;;;;;;88.57;45.07;;;15.10;99.90;;;;;;7290628;19;20773;-93
2023/05/12 02:24:58;;;;;;;89.23;44.40;;;15.00;99.90;;;;;;7288693;19;20190;-92
2023/05/12 02:27:24;;;;;;;80.17;42.67;;;14.90;99.90;;;;;;7289331;19;20183;-92
2023/05/12 02:29:51;;;;;;;88.30;44.63;;;14.80;99.90;;;;;;7287067;19;20187;-93
2023/05/12 02:32:17;;;;;;;82.93;42.43;;;14.80;99.90;;;;;;7288295;19;20530;-92
2023/05/12 02:34:46;;;;;;;82.67;42.77;;;15.00;99.90;;;;;;7289650;19;20176;-92
2023/05/12 02:37:12;;;;;;;85.47;42.07;;;15.00;99.90;;;;;;7309847;19;20181;-92
2023/05/12 02:39:38;;;;;;;77.13;40.57;;;15.00;99.90;;;;;;7289283;19;20184;-92
2023/05/12 02:42:05;;;;;;;86.07;41.20;;;15.20;99.90;;;;;;7288441;19;20196;-92
2023/05/12 02:44:31;;;;;;;86.97;42.80;;;15.20;99.90;;;;;;7287489;19;20208;-91
2023/05/12 02:46:57;;;;;;;81.10;39.73;;;15.30;99.90;;;;;;7288345;19;20190;-91
2023/05/12 02:49:23;;;;;;;85.60;41.20;;;15.30;99.90;;;;;;7286995;19;20206;-92
2023/05/12 02:51:49;;;;;;;81.30;40.23;;;15.30;99.90;;;;;;7287257;19;20183;-92
2023/05/12 02:54:15;;;;;;;84.57;40.20;;;15.30;99.90;;;;;;7287182;19;20646;-92
2023/05/12 02:56:41;;;;;;;77.57;38.60;;;15.30;99.90;;;;;;7309111;19;20232;-92
2023/05/12 02:59:07;;;;;;;79.27;40.63;;;15.10;99.90;;;;;;7287588;19;20199;-92
2023/05/12 03:01:33;;;;;;;84.90;41.20;;;15.10;99.90;;;;;;7287006;19;20990;-91
2023/05/12 03:03:59;;;;;;;86.57;41.80;;;15.20;99.90;;;;;;7287838;19;20186;-91
2023/05/12 03:06:25;;;;;;;84.17;41.00;;;15.30;99.90;;;;;;7288383;19;20196;-92
2023/05/12 03:08:53;;;;;;;88.53;41.07;;;15.30;99.90;;;;;;7293512;19;20192;-92
2023/05/12 03:11:19;;;;;;;82.50;40.97;;;15.30;99.90;;;;;;7288326;19;20224;-92
2023/05/12 03:13:46;;;;;;;84.97;40.70;;;15.30;99.90;;;;;;7287140;19;20210;-93
2023/05/12 03:16:11;;;;;;;85.97;41.47;;;15.30;99.90;;;;;;7308816;19;20188;-92
2023/05/12 03:18:38;;;;;;;83.10;40.67;;;15.20;99.90;;;;;;7286735;19;20678;-93
2023/05/12 03:21:05;;;;;;;94.53;42.07;;;15.20;99.90;;;;;;7286085;19;20192;-92
2023/05/12 03:23:30;;;;;;;86.83;42.93;;;15.20;99.90;;;;;;7287255;19;20198;-92
2023/05/12 03:25:56;;;;;;;87.57;41.37;;;15.20;99.90;;;;;;7286225;19;20686;-91
2023/05/12 03:28:23;;;;;;;91.20;41.60;;;15.30;99.90;;;;;;7284428;19;20547;-93
2023/05/12 03:30:49;;;;;;;87.37;42.03;;;15.40;99.90;;;;;;7286845;19;20194;-92
2023/05/12 03:33:15;;;;;;;85.93;41.10;;;15.30;99.90;;;;;;7286357;19;20200;-92
2023/05/12 03:35:42;;;;;;;81.87;40.00;;;15.30;99.90;;;;;;7308455;19;20204;-91
2023/05/12 03:38:07;;;;;;;81.67;39.97;;;15.30;99.90;;;;;;7286288;19;20708;-92
2023/05/12 03:40:33;;;;;;;80.70;40.77;;;15.30;99.90;;;;;;7287778;19;20545;-92
2023/05/12 03:42:59;;;;;;;81.63;40.37;;;15.30;99.90;;;;;;7285234;19;20204;-92
2023/05/12 03:45:25;;;;;;;85.30;40.17;;;15.30;99.90;;;;;;7287237;19;20198;-92
2023/05/12 03:47:51;;;;;;;86.00;40.13;;;15.30;99.90;;;;;;7287139;19;20200;-92
2023/05/12 03:50:17;;;;;;;79.80;40.03;;;15.40;99.90;;;;;;7287375;19;20191;-93
2023/05/12 03:52:43;;;;;;;85.97;40.00;;;15.30;99.90;;;;;;7309319;19;20225;-92
2023/05/12 03:55:09;;;;;;;70.00;35.43;;;15.20;99.90;;;;;;7287664;19;20193;-93
2023/05/12 03:57:36;;;;;;;48.60;24.50;;;14.90;99.90;;;;;;7287481;19;20261;-93
2023/05/12 04:00:06;;;;;;;30.10;17.17;;;14.60;99.90;;;;;;7288325;19;20193;-94
2023/05/12 04:02:38;;;;;;;20.40;11.43;;;14.30;99.90;;;;;;7294724;19;20190;-93
2023/05/12 04:05:07;;;;;;;19.00;10.87;;;13.90;99.90;;;;;;7296038;19;20256;-93
2023/05/12 04:07:33;;;;;;;16.17;9.43;;;13.70;99.90;;;;;;7294281;19;20191;-93
2023/05/12 04:09:59;;;;;;;18.47;10.47;;;13.60;99.90;;;;;;7296048;19;20195;-92
2023/05/12 04:12:25;;;;;;;22.10;11.70;;;13.50;99.90;;;;;;7304761;19;20203;-93
2023/05/12 04:14:51;;;;;;;20.67;11.30;;;13.50;99.90;;;;;;7296608;19;20559;-92
2023/05/12 04:17:18;;;;;;;21.77;12.40;;;13.50;99.90;;;;;;7293734;19;20325;-93
2023/05/12 04:19:45;;;;;;;21.27;12.77;;;13.50;99.90;;;;;;7302093;19;20199;-93
2023/05/12 04:22:11;;;;;;;24.20;13.43;;;13.50;99.90;;;;;;7317052;19;20213;-93
2023/05/12 04:24:37;;;;;;;23.40;13.57;;;13.50;99.90;;;;;;7297224;19;20188;-93
2023/05/12 04:27:04;;;;;;;22.57;13.97;;;13.50;99.90;;;;;;7297244;19;20312;-93
2023/05/12 04:29:30;;;;;;;26.17;15.80;;;13.50;99.90;;;;;;7305609;19;20196;-93
2023/05/12 04:31:56;;;;;;;24.27;15.03;;;13.50;99.90;;;;;;7315548;19;20191;-92
2023/05/12 04:34:22;;;;;;;31.63;17.80;;;13.60;99.90;;;;;;7314935;19;20198;-92
2023/05/12 04:36:48;;;;;;;27.87;17.47;;;13.80;99.90;;;;;;7311848;19;20211;-93
2023/05/12 04:39:14;;;;;;;30.20;18.13;;;13.80;99.90;;;;;;7308453;19;20308;-94
2023/05/12 04:41:40;;;;;;;31.00;19.13;;;14.00;99.90;;;;;;7318859;19;20193;-93
2023/05/12 04:44:07;;;;;;;34.87;18.47;;;14.20;99.90;;;;;;7297038;19;20184;-93
2023/05/12 04:46:33;;;;;;;32.00;19.30;;;14.30;99.90;;;;;;7291601;19;20181;-91
2023/05/12 04:48:59;;;;;;;40.97;24.90;;;14.00;99.90;;;;;;7293256;19;20191;-91
2023/05/12 04:51:25;;;;;;;38.47;25.13;;;13.80;99.90;;;;;;7291860;19;20190;-91
2023/05/12 04:53:51;;;;;;;41.10;26.70;;;13.90;99.90;;;;;;7292774;19;20239;-92
2023/05/12 04:56:18;;;;;;;40.13;27.33;;;14.00;99.90;;;;;;7290979;19;20196;-91
2023/05/12 04:58:44;;;;;;;41.87;27.47;;;14.20;99.90;;;;;;7306240;19;20181;-90
2023/05/12 05:01:12;;;;;;;43.43;28.50;;;14.10;99.90;;;;;;7312950;19;20226;-91
2023/05/12 05:03:39;;;;;;;39.87;27.03;;;14.10;99.90;;;;;;7292445;19;20195;-92
2023/05/12 05:06:05;;;;;;;41.83;27.73;;;14.20;99.90;;;;;;7291871;19;20180;-91
2023/05/12 05:08:31;;;;;;;40.00;25.80;;;14.20;99.90;;;;;;7290935;19;20209;-92
2023/05/12 05:10:57;;;;;;;35.60;21.70;;;14.20;99.90;;;;;;7292760;19;20185;-92
2023/05/12 05:13:24;;;;;;;34.70;20.13;;;14.30;99.90;;;;;;7291376;19;20185;-92
2023/05/12 05:15:52;;;;;;;30.37;18.50;;;14.20;99.90;;;;;;7291486;19;20190;-91
2023/05/12 05:18:21;;;;;;;27.13;16.67;;;14.20;99.90;;;;;;7298189;19;20195;-91
2023/05/12 05:20:47;;;;;;;26.63;15.27;;;14.10;99.90;;;;;;7291069;19;20189;-92
2023/05/12 05:23:13;;;;;;;25.87;14.67;;;14.20;99.90;;;;;;7309434;19;20188;-91
2023/05/12 05:25:40;;;;;;;23.70;13.87;;;14.20;99.90;;;;;;7313107;19;20200;-92
2023/05/12 05:28:06;;;;;;;20.03;12.30;;;14.20;99.90;;;;;;7290542;19;20185;-93
2023/05/12 05:30:34;;;;;;;17.83;11.03;;;14.00;99.90;;;;;;7291289;19;20197;-90
2023/05/12 05:33:01;;;;;;;17.17;10.90;;;13.90;99.90;;;;;;7289204;19;20202;-91
2023/05/12 05:35:26;;;;;;;19.80;12.27;;;13.90;99.90;;;;;;7288556;19;20192;-91
2023/05/12 05:37:53;;;;;;;19.87;11.07;;;13.90;99.90;;;;;;7289305;19;20194;-91
2023/05/12 05:40:20;;;;;;;21.23;11.67;;;13.70;99.90;;;;;;7290388;19;20248;-91
2023/05/12 05:42:46;;;;;;;18.40;11.60;;;13.60;99.90;;;;;;7290426;19;20244;-91
2023/05/12 05:45:12;;;;;;;18.93;10.77;;;13.50;99.90;;;;;;7313226;19;20205;-91
2023/05/12 05:47:39;;;;;;;19.93;12.13;;;13.50;99.90;;;;;;7290609;19;20184;-91
2023/05/12 05:50:06;;;;;;;20.00;11.43;;;13.50;99.90;;;;;;7289216;19;20248;-90
2023/05/12 05:52:35;;;;;;;17.47;11.57;;;13.60;99.90;;;;;;7289456;19;20185;-90
2023/05/12 05:55:01;;;;;;;20.67;12.40;;;13.70;99.90;;;;;;7289112;19;20188;-91
2023/05/12 05:57:28;;;;;;;19.70;12.07;;;13.70;99.90;;;;;;7287747;19;20275;-90
2023/05/12 05:59:57;;;;;;;19.07;11.97;;;13.70;99.90;;;;;;7289141;19;20193;-90
2023/05/12 06:02:23;;;;;;;20.60;11.97;;;13.60;99.90;;;;;;7290718;19;20223;-90
2023/05/12 06:04:48;;;;;;;19.90;11.47;;;13.60;99.90;;;;;;7291189;19;20185;-89
2023/05/12 06:07:14;;;;;;;19.30;10.83;;;13.60;99.90;;;;;;7298669;19;20183;-91
2023/05/12 06:09:41;;;;;;;17.03;10.77;;;13.40;99.90;;;;;;7312707;19;20185;-89
2023/05/12 06:12:07;;;;;;;19.73;11.87;;;13.40;99.90;;;;;;7289681;19;20613;-90
2023/05/12 06:14:33;;;;;;;21.70;11.90;;;13.50;99.90;;;;;;7291770;19;20193;-91
2023/05/12 06:16:59;;;;;;;20.37;11.77;;;13.60;99.90;;;;;;7291444;19;20191;-90
2023/05/12 06:19:25;;;;;;;19.10;12.20;;;13.70;99.90;;;;;;7287881;19;20317;-91
2023/05/12 06:21:51;;;;;;;20.60;11.80;;;13.80;99.90;;;;;;7287402;19;20192;-89
2023/05/12 06:24:17;;;;;;;19.30;10.80;;;13.90;99.90;;;;;;7285754;19;20184;-90
2023/05/12 06:26:43;;;;;;;22.67;12.00;;;13.90;99.90;;;;;;7309587;19;20255;-90
2023/05/12 06:29:09;;;;;;;19.87;11.90;;;13.90;99.90;;;;;;7288054;19;20205;-89
2023/05/12 06:31:35;;;;;;;20.67;12.53;;;13.90;99.90;;;;;;7288139;19;20194;-90
2023/05/12 06:34:01;;;;;;;19.30;11.97;;;14.00;99.90;;;;;;7287108;19;20684;-90
2023/05/12 06:36:28;;;;;;;18.27;11.23;;;14.00;99.90;;;;;;7287744;19;20193;-90
2023/05/12 06:38:55;;;;;;;16.80;10.90;;;13.90;99.90;;;;;;7287900;19;20213;-90
2023/05/12 06:41:23;;;;;;;17.00;10.50;;;13.80;99.90;;;;;;7285923;19;20205;-91
2023/05/12 06:43:50;;;;;;;18.83;10.23;;;13.80;99.90;;;;;;7288103;19;20205;-90
2023/05/12 06:46:26;;;;;;;17.13;10.03;;;13.70;99.90;;;;;;7287742;19;20198;-89
2023/05/12 06:48:54;;;;;;;14.00;9.80;;;13.50;99.90;;;;;;7288370;19;20216;-90
2023/05/12 06:51:20;;;;;;;15.83;10.17;;;13.40;99.90;;;;;;7287338;19;20339;-90
2023/05/12 06:53:46;;;;;;;15.60;10.97;;;13.60;99.90;;;;;;7285764;19;20185;-89
2023/05/12 06:56:15;;;;;;;15.10;10.93;;;13.70;99.90;;;;;;7308830;19;20701;-90
2023/05/12 06:58:42;;;;;;;14.73;9.47;;;13.70;99.90;;;;;;7287155;19;20202;-90
2023/05/12 07:01:08;;;;;;;13.77;9.33;;;13.80;99.90;;;;;;7285861;19;20193;-89
2023/05/12 07:03:34;;;;;;;13.13;8.43;;;13.90;99.90;;;;;;7287904;19;20211;-90
2023/05/12 07:06:00;;;;;;;12.67;8.40;;;13.90;99.90;;;;;;7284485;19;20196;-90
2023/05/12 07:08:26;;;;;;;12.70;7.43;;;13.90;99.90;;;;;;7286492;19;20184;-89
2023/05/12 07:10:52;;;;;;;11.30;6.97;;;13.90;99.90;;;;;;7287500;19;20548;-89
2023/05/12 07:13:17;;;;;;;11.43;6.90;;;14.00;99.90;;;;;;7286181;19;20186;-90
2023/05/12 07:15:43;;;;;;;9.90;6.33;;;14.00;99.90;;;;;;7307273;19;20180;-90
2023/05/12 07:18:09;;;;;;;12.27;6.30;;;14.20;99.90;;;;;;7287052;19;20185;-90
2023/05/12 07:20:35;;;;;;;9.90;5.80;;;14.10;99.90;;;;;;7286691;19;20180;-89
2023/05/12 07:23:01;;;;;;;9.73;5.57;;;14.00;99.90;;;;;;7287358;19;20191;-90
2023/05/12 07:25:27;;;;;;;12.43;5.30;;;13.90;99.90;;;;;;7286560;19;20210;-90
2023/05/12 07:27:53;;;;;;;11.40;5.37;;;13.90;99.90;;;;;;7286113;19;20184;-89
2023/05/12 07:30:21;;;;;;;8.00;4.20;;;14.00;99.90;;;;;;7287569;19;20181;-91
2023/05/12 07:32:47;;;;;;;8.10;4.30;;;14.20;99.90;;;;;;7286688;19;20185;-90
2023/05/12 07:35:13;;;;;;;7.33;4.00;;;14.20;99.90;;;;;;7309843;19;20687;-90
2023/05/12 07:37:40;;;;;;;5.27;3.37;;;14.30;99.90;;;;;;7295159;19;20188;-90
2023/05/12 07:40:06;;;;;;;9.67;3.67;;;14.40;99.90;;;;;;7294157;19;20261;-90
2023/05/12 07:42:32;;;;;;;6.47;3.60;;;14.50;99.90;;;;;;7292442;19;20192;-89
2023/05/12 07:44:58;;;;;;;5.67;3.23;;;14.70;99.90;;;;;;7294099;19;20199;-90
2023/05/12 07:47:24;;;;;;;6.90;4.00;;;14.80;99.90;;;;;;7293436;19;20642;-89
2023/05/12 07:49:50;;;;;;;7.57;3.43;;;15.00;99.90;;;;;;7294425;19;20257;-90
2023/05/12 07:52:16;;;;;;;6.10;3.20;;;15.10;99.90;;;;;;7294651;19;20209;-90
2023/05/12 07:54:41;;;;;;;5.93;3.47;;;15.20;99.90;;;;;;7314092;19;20184;-89
2023/05/12 07:57:07;;;;;;;6.13;3.43;;;15.20;99.90;;;;;;7293216;19;20658;-90
2023/05/12 07:59:33;;;;;;;5.50;3.43;;;15.30;99.90;;;;;;7294499;19;20196;-90
2023/05/12 08:01:59;;;;;;;7.00;3.50;;;15.30;99.90;;;;;;7291910;19;20190;-90
2023/05/12 08:04:24;;;;;;;6.60;3.53;;;15.30;99.90;;;;;;7294355;19;20200;-91
2023/05/12 08:06:50;;;;;;;6.37;3.77;;;15.30;99.90;;;;;;7293178;19;20208;-90
2023/05/12 08:09:16;;;;;;;5.70;3.17;;;15.40;99.90;;;;;;7292708;19;20204;-90
2023/05/12 08:11:42;;;;;;;5.13;3.13;;;15.50;99.90;;;;;;7313273;19;20187;-90
2023/05/12 08:14:08;;;;;;;6.43;3.13;;;15.50;99.90;;;;;;7292732;19;20181;-90
2023/05/12 08:16:34;;;;;;;4.67;3.10;;;15.50;99.90;;;;;;7293370;19;20199;-90
2023/05/12 08:19:00;;;;;;;6.30;2.87;;;15.60;99.90;;;;;;7292717;19;20229;-89
2023/05/12 08:21:27;;;;;;;4.83;3.10;;;15.60;99.90;;;;;;7292482;19;20212;-90
2023/05/12 08:23:53;;;;;;;7.00;3.10;;;15.50;99.90;;;;;;7306960;19;20218;-89
2023/05/12 08:26:25;;;;;;;4.30;2.80;;;15.70;99.90;;;;;;7317995;19;20196;-90
2023/05/12 08:28:56;;;;;;;4.60;2.67;;;15.80;99.90;;;;;;7318621;19;20200;-89
2023/05/12 08:31:22;;;;;;;5.50;2.50;;;15.90;99.90;;;;;;7316741;19;20217;-90
2023/05/12 08:33:48;;;;;;;4.53;2.40;;;16.10;99.90;;;;;;7307482;19;20191;-90
2023/05/12 08:36:13;;;;;;;4.10;2.40;;;16.30;99.90;;;;;;7341141;19;20208;-90
2023/05/12 08:38:41;;;;;;;5.40;2.43;;;16.20;99.90;;;;;;7320992;19;20201;-90
2023/05/12 08:41:30;;;;;;;3.60;2.57;;;16.10;99.90;;;;;;7317409;19;20199;-89
2023/05/12 08:43:57;;;;;;;3.90;2.50;;;16.00;99.90;;;;;;7215920;19;2004585;-90
2023/05/12 08:46:24;;;;;;;4.30;2.67;;;15.90;99.90;;;;;;7318854;19;20182;-90
2023/05/12 08:48:52;;;;;;;4.33;2.67;;;16.00;99.90;;;;;;7321705;19;20193;-90
2023/05/12 08:51:19;;;;;;;3.50;2.40;;;16.20;99.90;;;;;;7321498;19;20192;-91
2023/05/12 08:53:47;;;;;;;4.30;2.60;;;16.40;99.90;;;;;;7331845;19;20223;-91
2023/05/12 08:56:18;;;;;;;2.97;2.10;;;16.40;99.90;;;;;;7341888;19;20228;-89
2023/05/12 08:58:45;;;;;;;4.13;1.90;;;16.40;99.90;;;;;;7295646;19;20648;-91
2023/05/12 09:01:13;;;;;;;3.17;2.03;;;16.70;99.90;;;;;;7289524;19;20202;-90
2023/05/12 09:03:39;;;;;;;4.23;2.13;;;16.90;99.90;;;;;;7289325;19;20181;-89
2023/05/12 09:06:05;;;;;;;3.53;2.00;;;17.10;99.90;;;;;;7299623;19;20237;-90
2023/05/12 09:08:32;;;;;;;4.13;2.50;;;17.40;99.90;;;;;;7305907;19;20198;-90
2023/05/12 09:10:59;;;;;;;4.40;2.33;;;17.40;99.90;;;;;;7311975;19;20189;-89
2023/05/12 09:13:32;;;;;;;2.90;2.30;;;17.60;99.90;;;;;;7302387;19;20189;-89
2023/05/12 09:16:01;;;;;;;6.77;2.53;;;17.80;99.90;;;;;;7291142;19;20688;-90
2023/05/12 09:18:52;;;;;;;4.07;2.73;;;17.90;99.90;;;;;;7288981;19;20196;-90
2023/05/12 09:21:18;;;;;;;3.80;2.50;;;17.90;99.90;;;;;;7266846;19;20181;-90
2023/05/12 09:23:56;;;;;;;3.33;2.50;;;18.10;99.90;;;;;;7309170;19;20189;-90
2023/05/12 09:26:23;;;;;;;3.87;2.30;;;18.20;99.90;;;;;;7287716;19;20184;-90
2023/05/12 09:28:51;;;;;;;3.20;2.40;;;18.20;99.90;;;;;;7286407;19;20601;-91
2023/05/12 09:31:19;;;;;;;4.33;2.50;;;18.30;99.90;;;;;;7289029;19;20196;-91
2023/05/12 09:33:45;;;;;;;4.60;2.70;;;18.30;99.90;;;;;;7304438;19;20540;-91
2023/05/12 09:36:15;;;;;;;5.00;2.80;;;18.40;99.90;;;;;;7311891;19;20191;-91
2023/05/12 09:38:41;;;;;;;3.97;2.33;;;18.50;99.90;;;;;;7298739;19;20196;-90
2023/05/12 09:41:06;;;;;;;3.97;2.50;;;18.60;99.90;;;;;;7291474;19;20193;-90
2023/05/12 09:43:32;;;;;;;4.83;2.50;;;18.60;99.90;;;;;;7293076;19;20195;-90
2023/05/12 09:46:05;;;;;;;3.93;2.30;;;18.60;99.90;;;;;;7293484;19;20192;-90
2023/05/12 09:48:31;;;;;;;3.07;2.30;;;18.80;99.90;;;;;;7292254;19;20205;-90
2023/05/12 09:50:57;;;;;;;3.60;2.30;;;19.20;99.90;;;;;;7292369;19;20547;-91
2023/05/12 09:53:23;;;;;;;2.70;1.60;;;19.40;99.90;;;;;;7290851;19;20212;-91
2023/05/12 09:55:49;;;;;;;3.30;1.63;;;19.00;99.90;;;;;;7289260;19;20248;-88
2023/05/12 09:58:17;;;;;;;3.60;2.00;;;18.70;99.90;;;;;;7299066;19;20192;-89
2023/05/12 10:00:44;;;;;;;2.50;1.80;;;18.60;99.90;;;;;;7310670;19;20305;-90
2023/05/12 10:03:15;;;;;;;4.33;1.77;;;18.70;99.90;;;;;;7290902;19;20203;-90
2023/05/12 10:06:02;;;;;;;2.50;1.40;;;19.00;99.90;;;;;;7289454;19;20187;-91
2023/05/12 10:08:36;;;;;;;1.87;1.33;;;19.10;99.90;;;;;;7184710;19;2004431;-91
2023/05/12 10:11:05;;;;;;;1.70;1.30;;;19.20;99.90;;;;;;7290100;19;20195;-91
2023/05/12 10:13:32;;;;;;;2.70;1.37;;;19.10;99.90;;;;;;7289389;19;20611;-91
2023/05/12 10:15:59;;;;;;;1.90;1.40;;;18.90;99.90;;;;;;7287929;19;20194;-90
2023/05/12 10:18:26;;;;;;;2.20;1.40;;;18.60;99.90;;;;;;7288600;19;20202;-91
2023/05/12 10:20:52;;;;;;;1.80;1.30;;;18.60;99.90;;;;;;7286615;19;20189;-90
2023/05/12 10:23:19;;;;;;;4.40;1.43;;;18.70;99.90;;;;;;7287444;19;20190;-91
2023/05/12 10:25:46;;;;;;;1.50;1.10;;;18.70;99.90;;;;;;7304207;19;20193;-90
2023/05/12 10:28:12;;;;;;;2.30;1.30;;;18.70;99.90;;;;;;7310048;19;20655;-92
2023/05/12 10:30:39;;;;;;;1.60;1.20;;;18.40;99.90;;;;;;7287244;19;20210;-91
2023/05/12 10:33:10;;;;;;;2.60;1.40;;;18.30;99.90;;;;;;7287561;19;20665;-91
2023/05/12 10:35:37;;;;;;;4.37;1.40;;;18.30;99.90;;;;;;7287907;19;20220;-92
2023/05/12 10:38:10;;;;;;;2.20;1.47;;;18.40;99.90;;;;;;7289498;19;20191;-91
2023/05/12 10:40:49;;;;;;;2.60;1.60;;;18.60;99.90;;;;;;7290866;19;20203;-91
2023/05/12 10:43:24;;;;;;;1.90;1.40;;;18.80;99.90;;;;;;7285448;19;20192;-92
2023/05/12 10:46:26;;;;;;;1.77;1.30;;;18.50;99.90;;;;;;7291016;19;20196;-92
2023/05/12 10:49:02;;;;;;;3.00;1.50;;;18.40;99.90;;;;;;7187524;19;2004458;-92
2023/05/12 10:51:32;;;;;;;4.00;1.90;;;18.10;99.90;;;;;;7290618;19;20203;-91
2023/05/12 10:54:04;;;;;;;2.40;1.67;;;17.70;99.90;;;;;;7292346;19;20252;-91
2023/05/12 10:56:36;;;;;;;2.80;1.90;;;17.30;99.90;;;;;;7286384;19;20200;-91
2023/05/12 10:59:22;;;;;;;4.47;2.47;;;16.90;99.90;;;;;;7287636;19;20190;-91
2023/05/12 11:01:57;;;;;;;4.40;2.67;;;16.60;99.90;;;;;;7265754;19;20198;-91
2023/05/12 11:04:34;;;;;;;5.63;2.90;;;16.30;99.90;;;;;;7287493;19;20252;-92
2023/05/12 11:06:59;;;;;;;5.67;3.10;;;16.40;99.90;;;;;;7286515;19;20270;-92
2023/05/12 11:09:25;;;;;;;5.13;3.10;;;16.90;99.90;;;;;;7285618;19;20206;-92
2023/05/12 11:11:51;;;;;;;4.77;3.07;;;17.00;99.90;;;;;;7284626;19;20612;-92
2023/05/12 11:14:17;;;;;;;8.33;3.40;;;17.20;99.90;;;;;;7284552;19;20216;-92
2023/05/12 11:16:44;;;;;;;4.50;3.13;;;17.50;99.90;;;;;;7307369;19;20604;-91
2023/05/12 11:19:10;;;;;;;4.23;2.90;;;18.00;99.90;;;;;;7285669;19;20201;-92
2023/05/12 11:21:37;;;;;;;3.60;2.50;;;18.20;99.90;;;;;;7284281;19;20192;-93
2023/05/12 11:24:03;;;;;;;4.40;2.50;;;18.30;99.90;;;;;;7286739;19;20197;-92
2023/05/12 11:26:29;;;;;;;3.83;2.03;;;18.90;99.90;;;;;;7285437;19;20534;-92
2023/05/12 11:28:58;;;;;;;3.27;2.10;;;20.00;99.90;;;;;;7285048;19;20181;-92
2023/05/12 11:31:24;;;;;;;3.13;2.00;;;21.40;99.90;;;;;;7285707;19;20234;-92
2023/05/12 11:34:02;;;;;;;3.77;2.07;;;22.40;99.90;;;;;;7284611;19;20190;-92
2023/05/12 11:36:27;;;;;;;2.43;1.67;;;23.20;99.90;;;;;;7286766;19;20214;-92
2023/05/12 11:39:05;;;;;;;2.63;1.57;;;24.10;99.90;;;;;;7284466;19;20648;-92
2023/05/12 11:41:33;;;;;;;2.10;1.43;;;23.70;99.90;;;;;;7282960;19;20181;-93
2023/05/12 11:44:21;;;;;;;1.97;1.33;;;23.10;99.90;;;;;;7286437;19;20208;-93
2023/05/12 11:47:10;;;;;;;2.07;1.30;;;22.10;99.90;;;;;;7191065;19;2004642;-93
2023/05/12 11:49:49;;;;;;;2.87;1.57;;;21.40;99.90;;;;;;7285940;19;20185;-93
2023/05/12 11:52:15;;;;;;;3.13;1.80;;;21.30;99.90;;;;;;7274834;19;20271;-92
2023/05/12 11:54:56;;;;;;;4.97;2.23;;;21.00;99.90;;;;;;7305305;19;20188;-93
2023/05/12 11:57:31;;;;;;;2.43;1.87;;;20.70;99.90;;;;;;7181607;19;2004387;-93
2023/05/12 12:00:01;;;;;;;2.67;1.70;;;20.70;99.90;;;;;;7284894;19;20301;-93
2023/05/12 12:02:32;;;;;;;2.80;2.00;;;20.50;99.90;;;;;;7285737;19;20198;-94
2023/05/12 12:04:58;;;;;;;2.90;1.83;;;20.40;99.90;;;;;;7285593;19;20199;-92
2023/05/12 12:07:34;;;;;;;2.73;1.50;;;20.70;99.90;;;;;;7283956;19;20183;-95
2023/05/12 12:10:16;;;;;;;2.80;1.77;;;21.30;99.90;;;;;;7286034;19;20191;-93
2023/05/12 12:12:42;;;;;;;4.83;2.03;;;22.00;99.90;;;;;;7285497;19;20681;-93
2023/05/12 12:15:09;;;;;;;3.47;1.60;;;22.60;99.90;;;;;;7283324;19;20181;-94
2023/05/12 12:17:35;;;;;;;2.93;1.83;;;22.40;99.90;;;;;;7283859;19;20217;-93
2023/05/12 12:20:01;;;;;;;3.07;1.70;;;22.20;99.90;;;;;;7282239;19;20185;-94
2023/05/12 12:22:32;;;;;;;3.53;2.00;;;21.80;99.90;;;;;;7286227;19;20193;-92
2023/05/12 12:24:59;;;;;;;3.80;2.43;;;21.40;99.90;;;;;;7291291;19;20208;-93
2023/05/12 12:27:25;;;;;;;6.30;3.10;;;21.00;99.90;;;;;;7289455;19;20188;-92
2023/05/12 12:29:51;;;;;;;7.27;3.27;;;20.70;99.90;;;;;;7290438;19;20203;-93
2023/05/12 12:32:17;;;;;;;8.70;4.83;;;20.60;99.90;;;;;;7290119;19;20199;-92
2023/05/12 12:34:45;;;;;;;8.77;4.77;;;20.20;99.90;;;;;;7312338;19;20264;-92
2023/05/12 12:37:11;;;;;;;7.67;4.73;;;19.70;99.90;;;;;;7291421;19;20189;-93